sensor_id;sensor_type;location;lat;lon;timestamp;pressure;altitude;pressure_sealevel;temperature;humidity
70458;BME280;57919;56.194;95.716;2022-10-16T00:03:28;100737.06;;;-4.52;74.12
70458;BME280;57919;56.194;95.716;2022-10-16T00:13:32;100705.41;;;-4.61;74.29
70458;BME280;57919;56.194;95.716;2022-10-16T00:23:35;100715.97;;;-4.64;74.33
70458;BME280;57919;56.194;95.716;2022-10-16T00:33:38;100715.94;;;-4.58;73.85
70458;BME280;57919;56.194;95.716;2022-10-16T00:53:55;100711.41;;;-4.19;74.14
70458;BME280;57919;56.194;95.716;2022-10-16T01:03:56;100721.72;;;-3.75;74.36
70458;BME280;57919;56.194;95.716;2022-10-16T01:14:02;100726.25;;;-2.78;73.72
70458;BME280;57919;56.194;95.716;2022-10-16T01:24:48;100722.66;;;-2.74;73.74
70458;BME280;57919;56.194;95.716;2022-10-16T01:34:53;100713.13;;;-2.12;73.72
70458;BME280;57919;56.194;95.716;2022-10-16T01:44:58;100701.50;;;-1.42;72.37
70458;BME280;57919;56.194;95.716;2022-10-16T01:55:03;100703.44;;;-0.50;71.62
70458;BME280;57919;56.194;95.716;2022-10-16T02:15:37;100699.13;;;2.28;68.57
70458;BME280;57919;56.194;95.716;2022-10-16T02:25:41;100690.19;;;3.85;66.37
70458;BME280;57919;56.194;95.716;2022-10-16T02:35:46;100691.91;;;5.21;64.25
70458;BME280;57919;56.194;95.716;2022-10-16T02:45:49;100686.22;;;5.28;63.11
70458;BME280;57919;56.194;95.716;2022-10-16T02:55:51;100657.28;;;5.96;61.68
70458;BME280;57919;56.194;95.716;2022-10-16T03:05:53;100659.03;;;6.15;60.13
70458;BME280;57919;56.194;95.716;2022-10-16T03:15:55;100653.75;;;7.05;59.07
70458;BME280;57919;56.194;95.716;2022-10-16T03:25:57;100651.03;;;6.33;57.94
70458;BME280;57919;56.194;95.716;2022-10-16T03:36:00;100644.38;;;6.77;57.29
70458;BME280;57919;56.194;95.716;2022-10-16T03:46:02;100649.47;;;7.01;56.68
70458;BME280;57919;56.194;95.716;2022-10-16T03:56:04;100630.47;;;7.04;55.82
70458;BME280;57919;56.194;95.716;2022-10-16T04:06:06;100626.63;;;8.57;54.51
70458;BME280;57919;56.194;95.716;2022-10-16T04:16:08;100608.94;;;8.83;52.13
70458;BME280;57919;56.194;95.716;2022-10-16T04:26:09;100606.81;;;7.94;54.47
70458;BME280;57919;56.194;95.716;2022-10-16T04:36:12;100591.38;;;9.06;52.53
70458;BME280;57919;56.194;95.716;2022-10-16T04:46:14;100580.84;;;9.46;52.06
70458;BME280;57919;56.194;95.716;2022-10-16T04:56:16;100577.25;;;9.31;51.19
70458;BME280;57919;56.194;95.716;2022-10-16T05:06:18;100558.66;;;9.69;51.49
70458;BME280;57919;56.194;95.716;2022-10-16T05:16:19;100543.78;;;9.48;51.11
70458;BME280;57919;56.194;95.716;2022-10-16T05:26:21;100538.28;;;9.35;51.56
70458;BME280;57919;56.194;95.716;2022-10-16T05:36:23;100526.75;;;10.02;50.05
70458;BME280;57919;56.194;95.716;2022-10-16T05:46:25;100525.06;;;9.87;50.00
70458;BME280;57919;56.194;95.716;2022-10-16T05:56:27;100510.84;;;10.39;49.53
70458;BME280;57919;56.194;95.716;2022-10-16T06:06:29;100484.84;;;10.63;48.64
70458;BME280;57919;56.194;95.716;2022-10-16T06:16:36;100489.88;;;9.32;48.88
70458;BME280;57919;56.194;95.716;2022-10-16T06:26:38;100476.88;;;8.04;50.98
70458;BME280;57919;56.194;95.716;2022-10-16T06:36:41;100461.44;;;7.76;51.53
70458;BME280;57919;56.194;95.716;2022-10-16T06:46:44;100447.25;;;7.89;51.45
70458;BME280;57919;56.194;95.716;2022-10-16T06:56:46;100432.09;;;8.33;51.47
70458;BME280;57919;56.194;95.716;2022-10-16T07:06:48;100422.44;;;8.14;51.05
70458;BME280;57919;56.194;95.716;2022-10-16T07:16:50;100402.25;;;7.75;52.03
70458;BME280;57919;56.194;95.716;2022-10-16T07:26:52;100398.66;;;8.06;52.26
70458;BME280;57919;56.194;95.716;2022-10-16T07:36:54;100384.66;;;7.99;52.69
70458;BME280;57919;56.194;95.716;2022-10-16T07:46:56;100376.72;;;8.42;51.93
70458;BME280;57919;56.194;95.716;2022-10-16T07:56:59;100364.66;;;8.03;52.01
70458;BME280;57919;56.194;95.716;2022-10-16T08:07:01;100350.81;;;8.09;51.99
70458;BME280;57919;56.194;95.716;2022-10-16T08:17:02;100352.91;;;8.04;52.68
70458;BME280;57919;56.194;95.716;2022-10-16T08:27:06;100338.91;;;8.14;51.77
70458;BME280;57919;56.194;95.716;2022-10-16T08:37:08;100332.91;;;8.08;52.37
70458;BME280;57919;56.194;95.716;2022-10-16T08:47:25;100324.28;;;8.18;51.93
70458;BME280;57919;56.194;95.716;2022-10-16T08:57:29;100328.41;;;8.09;52.16
70458;BME280;57919;56.194;95.716;2022-10-16T09:18:06;100318.66;;;8.06;52.55
70458;BME280;57919;56.194;95.716;2022-10-16T09:28:12;100321.50;;;7.89;53.00
70458;BME280;57919;56.194;95.716;2022-10-16T09:38:29;100307.25;;;7.57;53.08
70458;BME280;57919;56.194;95.716;2022-10-16T09:48:43;100314.81;;;7.35;54.11
70458;BME280;57919;56.194;95.716;2022-10-16T09:58:51;100322.47;;;7.11;54.24
70458;BME280;57919;56.194;95.716;2022-10-16T10:19:23;100309.00;;;6.13;56.58
70458;BME280;57919;56.194;95.716;2022-10-16T10:29:49;100304.31;;;5.82;56.85
70458;BME280;57919;56.194;95.716;2022-10-16T11:01:06;100273.13;;;4.34;59.16
70458;BME280;57919;56.194;95.716;2022-10-16T11:21:19;100273.38;;;3.69;60.83
70458;BME280;57919;56.194;95.716;2022-10-16T11:31:43;100273.47;;;3.25;61.41
70458;BME280;57919;56.194;95.716;2022-10-16T11:42:01;100267.06;;;2.85;62.27
70458;BME280;57919;56.194;95.716;2022-10-16T12:03:10;100256.53;;;2.12;63.27
70458;BME280;57919;56.194;95.716;2022-10-16T12:13:35;100243.63;;;1.77;63.96
70458;BME280;57919;56.194;95.716;2022-10-16T12:34:03;100228.81;;;1.43;64.41
70458;BME280;57919;56.194;95.716;2022-10-16T12:44:20;100226.13;;;1.18;64.88
70458;BME280;57919;56.194;95.716;2022-10-16T12:54:30;100204.81;;;0.92;65.17
70458;BME280;57919;56.194;95.716;2022-10-16T13:35:35;100166.78;;;0.60;66.29
70458;BME280;57919;56.194;95.716;2022-10-16T13:45:37;100146.28;;;0.36;66.63
70458;BME280;57919;56.194;95.716;2022-10-16T13:55:39;100149.94;;;0.04;67.28
70458;BME280;57919;56.194;95.716;2022-10-16T14:06:11;100157.78;;;-0.21;67.50
70458;BME280;57919;56.194;95.716;2022-10-16T14:16:21;100150.81;;;-0.56;68.37
70458;BME280;57919;56.194;95.716;2022-10-16T14:26:26;100139.72;;;-0.70;68.59
70458;BME280;57919;56.194;95.716;2022-10-16T14:36:29;100146.50;;;-0.60;68.66
70458;BME280;57919;56.194;95.716;2022-10-16T14:46:35;100140.66;;;-0.73;69.37
70458;BME280;57919;56.194;95.716;2022-10-16T14:56:56;100128.22;;;-0.71;69.67
70458;BME280;57919;56.194;95.716;2022-10-16T15:06:58;100138.75;;;-0.68;69.46
70458;BME280;57919;56.194;95.716;2022-10-16T15:17:00;100117.06;;;-0.83;69.46
70458;BME280;57919;56.194;95.716;2022-10-16T15:27:02;100106.75;;;-0.95;69.90
70458;BME280;57919;56.194;95.716;2022-10-16T15:37:05;100102.91;;;-1.16;69.50
70458;BME280;57919;56.194;95.716;2022-10-16T15:47:07;100095.53;;;-1.39;70.08
70458;BME280;57919;56.194;95.716;2022-10-16T15:57:09;100086.03;;;-1.48;69.95
70458;BME280;57919;56.194;95.716;2022-10-16T16:07:11;100084.47;;;-1.56;70.61
70458;BME280;57919;56.194;95.716;2022-10-16T16:17:13;100080.22;;;-1.62;70.69
70458;BME280;57919;56.194;95.716;2022-10-16T16:27:16;100080.31;;;-1.67;70.17
70458;BME280;57919;56.194;95.716;2022-10-16T16:37:18;100069.00;;;-1.73;70.64
70458;BME280;57919;56.194;95.716;2022-10-16T16:47:19;100067.72;;;-1.94;70.59
70458;BME280;57919;56.194;95.716;2022-10-16T16:57:21;100063.44;;;-2.00;70.54
70458;BME280;57919;56.194;95.716;2022-10-16T17:07:23;100051.25;;;-2.07;71.30
70458;BME280;57919;56.194;95.716;2022-10-16T17:17:27;100047.97;;;-2.18;71.27
70458;BME280;57919;56.194;95.716;2022-10-16T17:27:29;100037.56;;;-2.25;71.56
70458;BME280;57919;56.194;95.716;2022-10-16T17:37:31;100025.56;;;-2.42;71.38
70458;BME280;57919;56.194;95.716;2022-10-16T17:47:32;100031.06;;;-2.51;71.29
70458;BME280;57919;56.194;95.716;2022-10-16T17:57:34;100025.78;;;-2.51;72.08
70458;BME280;57919;56.194;95.716;2022-10-16T18:07:36;100006.56;;;-2.61;72.02
70458;BME280;57919;56.194;95.716;2022-10-16T18:17:38;100015.47;;;-2.63;72.26
70458;BME280;57919;56.194;95.716;2022-10-16T18:27:40;99999.59;;;-2.65;72.08
70458;BME280;57919;56.194;95.716;2022-10-16T18:37:42;99986.91;;;-2.89;72.38
70458;BME280;57919;56.194;95.716;2022-10-16T18:47:44;99990.28;;;-2.82;71.48
70458;BME280;57919;56.194;95.716;2022-10-16T18:57:46;99985.03;;;-2.84;72.27
70458;BME280;57919;56.194;95.716;2022-10-16T19:07:48;99983.31;;;-2.86;72.47
70458;BME280;57919;56.194;95.716;2022-10-16T19:17:50;99974.84;;;-3.02;72.90
70458;BME280;57919;56.194;95.716;2022-10-16T19:27:52;99966.25;;;-3.13;74.03
70458;BME280;57919;56.194;95.716;2022-10-16T19:37:55;99951.31;;;-3.16;73.81
70458;BME280;57919;56.194;95.716;2022-10-16T19:47:57;99946.91;;;-3.17;73.69
70458;BME280;57919;56.194;95.716;2022-10-16T19:57:59;99940.75;;;-3.17;73.80
70458;BME280;57919;56.194;95.716;2022-10-16T20:08:01;99910.13;;;-3.29;73.75
70458;BME280;57919;56.194;95.716;2022-10-16T20:18:02;99915.19;;;-3.18;74.95
70458;BME280;57919;56.194;95.716;2022-10-16T20:28:05;99900.75;;;-3.04;74.88
70458;BME280;57919;56.194;95.716;2022-10-16T20:38:07;99873.50;;;-3.07;75.06
70458;BME280;57919;56.194;95.716;2022-10-16T20:48:10;99869.31;;;-3.17;75.70
70458;BME280;57919;56.194;95.716;2022-10-16T20:58:12;99855.53;;;-3.32;75.97
70458;BME280;57919;56.194;95.716;2022-10-16T21:08:14;99838.09;;;-3.40;76.57
70458;BME280;57919;56.194;95.716;2022-10-16T21:18:16;99844.34;;;-3.44;76.29
70458;BME280;57919;56.194;95.716;2022-10-16T21:28:18;99807.66;;;-3.60;76.05
70458;BME280;57919;56.194;95.716;2022-10-16T21:38:21;99816.72;;;-3.71;76.12
70458;BME280;57919;56.194;95.716;2022-10-16T21:48:23;99795.69;;;-3.76;76.17
70458;BME280;57919;56.194;95.716;2022-10-16T21:58:25;99788.59;;;-3.74;76.50
70458;BME280;57919;56.194;95.716;2022-10-16T22:08:28;99787.41;;;-3.61;76.10
70458;BME280;57919;56.194;95.716;2022-10-16T22:18:31;99779.84;;;-3.77;76.23
70458;BME280;57919;56.194;95.716;2022-10-16T22:28:34;99768.81;;;-3.98;76.83
70458;BME280;57919;56.194;95.716;2022-10-16T22:38:36;99759.47;;;-4.14;76.52
70458;BME280;57919;56.194;95.716;2022-10-16T22:48:38;99752.47;;;-4.16;76.49
70458;BME280;57919;56.194;95.716;2022-10-16T22:58:40;99726.25;;;-4.26;76.08
70458;BME280;57919;56.194;95.716;2022-10-16T23:08:42;99725.22;;;-4.18;76.58
70458;BME280;57919;56.194;95.716;2022-10-16T23:18:45;99732.91;;;-4.06;76.42
70458;BME280;57919;56.194;95.716;2022-10-16T23:28:47;99724.34;;;-4.17;75.42
70458;BME280;57919;56.194;95.716;2022-10-16T23:38:49;99708.91;;;-4.37;76.31
70458;BME280;57919;56.194;95.716;2022-10-16T23:48:51;99707.88;;;-4.30;76.17
70458;BME280;57919;56.194;95.716;2022-10-16T23:58:53;99693.16;;;-4.42;75.99
